Time;durP1;ratioP1;P1;durP2;ratioP2;P2;SDS_P1;SDS_P2;PMS_P1;PMS_P2;Temp;Humidity;BMP_temperature;BMP_pressure;BME280_temperature;BME280_humidity;BME280_pressure;Samples;Min_cycle;Max_cycle;Signal;HPM_P1;HPM_P2
2022/08/31 00:06:02;;;;;;;5.97;4.13;;;20.00;76.70;;;;;;5099867;28;20199;-61
2022/08/31 00:08:29;;;;;;;4.23;3.30;;;19.90;76.70;;;;;;5096431;28;20188;-61
2022/08/31 00:10:55;;;;;;;4.63;3.40;;;19.90;77.20;;;;;;5090908;28;20246;-61
2022/08/31 00:13:26;;;;;;;5.90;4.17;;;19.90;77.50;;;;;;5094770;28;20232;-61
2022/08/31 00:15:52;;;;;;;6.70;3.60;;;19.90;77.60;;;;;;5107815;28;20189;-61
2022/08/31 00:18:19;;;;;;;4.83;4.10;;;19.90;77.60;;;;;;5090612;28;20184;-61
2022/08/31 00:20:45;;;;;;;5.77;3.57;;;19.80;77.50;;;;;;5091423;28;20188;-61
2022/08/31 00:23:13;;;;;;;6.93;3.67;;;19.80;77.50;;;;;;5087781;28;20242;-61
2022/08/31 00:25:41;;;;;;;5.83;3.47;;;19.80;77.30;;;;;;5095367;28;20185;-61
2022/08/31 00:28:08;;;;;;;7.60;4.07;;;19.80;77.30;;;;;;5076328;28;20232;-61
2022/08/31 00:30:34;;;;;;;7.23;4.13;;;19.80;77.40;;;;;;5096924;28;20191;-61
2022/08/31 00:33:01;;;;;;;5.47;3.73;;;19.80;77.30;;;;;;5100290;28;20218;-61
2022/08/31 00:35:28;;;;;;;4.27;3.70;;;19.80;77.50;;;;;;5078638;28;20735;-61
2022/08/31 00:37:54;;;;;;;5.93;3.43;;;19.80;77.50;;;;;;5095837;28;20184;-61
2022/08/31 00:40:21;;;;;;;5.37;3.50;;;19.80;77.30;;;;;;5100240;28;20286;-61
2022/08/31 00:42:46;;;;;;;4.90;3.43;;;19.70;77.50;;;;;;5094184;28;20181;-61
2022/08/31 00:45:12;;;;;;;4.97;3.50;;;19.70;77.40;;;;;;5058511;28;20192;-61
2022/08/31 00:47:38;;;;;;;6.53;3.33;;;19.80;77.20;;;;;;5087558;28;20193;-61
2022/08/31 00:50:07;;;;;;;3.53;3.23;;;19.70;76.90;;;;;;5079912;28;20207;-61
2022/08/31 00:52:38;;;;;;;3.87;3.43;;;19.70;76.50;;;;;;5095903;28;20248;-61
2022/08/31 00:55:13;;;;;;;6.60;3.87;;;19.70;76.20;;;;;;5101056;28;20260;-61
2022/08/31 00:57:41;;;;;;;4.23;3.47;;;19.70;76.50;;;;;;5106362;28;20188;-61
2022/08/31 01:00:12;;;;;;;5.70;4.00;;;19.70;76.60;;;;;;5105123;28;20215;-61
2022/08/31 01:02:38;;;;;;;5.43;3.47;;;19.60;76.40;;;;;;5103374;27;20176;-61
2022/08/31 01:05:04;;;;;;;4.80;3.43;;;19.60;76.80;;;;;;5096972;28;20201;-61
2022/08/31 01:07:30;;;;;;;5.73;3.80;;;19.60;76.70;;;;;;5099823;28;20198;-61
2022/08/31 01:09:58;;;;;;;10.23;3.63;;;19.60;76.80;;;;;;5108459;27;20187;-61
2022/08/31 01:12:26;;;;;;;5.30;3.57;;;19.60;77.20;;;;;;5081141;28;20189;-61
2022/08/31 01:14:52;;;;;;;4.27;3.13;;;19.60;77.20;;;;;;5084030;28;20222;-61
2022/08/31 01:17:19;;;;;;;5.43;3.13;;;19.60;76.90;;;;;;5092421;28;20180;-61
2022/08/31 01:20:01;;;;;;;9.70;3.47;;;19.60;76.90;;;;;;5100663;28;20260;-61
2022/08/31 01:22:26;;;;;;;6.73;3.33;;;19.50;77.20;;;;;;5096014;28;20274;-61
2022/08/31 01:24:54;;;;;;;6.50;3.50;;;19.50;77.10;;;;;;5103759;28;20275;-61
2022/08/31 01:27:26;;;;;;;4.40;3.73;;;19.50;77.10;;;;;;5099272;28;20282;-61
2022/08/31 01:29:52;;;;;;;4.03;3.40;;;19.50;77.10;;;;;;5101771;28;20278;-61
2022/08/31 01:32:18;;;;;;;5.67;3.70;;;19.50;76.80;;;;;;5100916;28;20299;-61
2022/08/31 01:34:43;;;;;;;4.40;3.43;;;19.50;76.30;;;;;;5076247;28;20193;-61
2022/08/31 01:37:10;;;;;;;5.03;3.20;;;19.50;76.00;;;;;;5065945;28;20184;-61
2022/08/31 01:39:36;;;;;;;5.57;3.77;;;19.40;76.10;;;;;;5061232;28;20197;-61
2022/08/31 01:42:01;;;;;;;6.47;3.77;;;19.50;76.60;;;;;;5081405;28;20196;-61
2022/08/31 01:44:27;;;;;;;4.67;3.50;;;19.50;77.20;;;;;;5067660;28;20236;-61
2022/08/31 01:46:54;;;;;;;5.53;3.30;;;19.50;77.60;;;;;;5066411;28;20218;-61
2022/08/31 01:49:21;;;;;;;8.23;3.50;;;19.50;78.00;;;;;;5112563;27;20192;-61
2022/08/31 01:51:49;;;;;;;7.47;3.90;;;19.50;78.30;;;;;;5099576;28;20319;-61
2022/08/31 01:54:16;;;;;;;7.50;3.53;;;19.50;78.40;;;;;;5108102;28;20216;-61
2022/08/31 01:56:44;;;;;;;4.63;3.20;;;19.50;78.70;;;;;;5099862;28;20184;-61
2022/08/31 01:59:12;;;;;;;7.80;3.70;;;19.50;78.60;;;;;;5103609;28;20191;-61
2022/08/31 02:01:41;;;;;;;6.63;3.37;;;19.50;78.40;;;;;;5098234;28;20217;-61
2022/08/31 02:04:10;;;;;;;6.73;4.10;;;19.50;78.40;;;;;;5101309;28;20196;-61
2022/08/31 02:06:36;;;;;;;8.90;4.07;;;19.40;78.30;;;;;;5103882;28;20241;-61
2022/08/31 02:09:05;;;;;;;5.97;3.67;;;19.40;78.40;;;;;;5099451;28;20204;-61
2022/08/31 02:11:30;;;;;;;5.37;3.30;;;19.40;78.60;;;;;;5102297;28;20196;-61
2022/08/31 02:13:57;;;;;;;5.33;3.63;;;19.30;78.30;;;;;;5082229;28;20284;-60
2022/08/31 02:16:23;;;;;;;11.53;4.13;;;19.30;78.30;;;;;;5080220;28;20326;-60
2022/08/31 02:18:48;;;;;;;6.63;3.43;;;19.30;78.40;;;;;;5074236;28;20255;-60
2022/08/31 02:21:14;;;;;;;5.17;3.37;;;19.30;78.60;;;;;;5099374;28;20188;-60
2022/08/31 02:23:40;;;;;;;4.67;3.40;;;19.30;78.70;;;;;;5081780;28;20263;-60
2022/08/31 02:26:06;;;;;;;6.53;3.73;;;19.30;78.60;;;;;;5081067;28;20197;-60
2022/08/31 02:28:32;;;;;;;4.67;4.07;;;19.30;78.60;;;;;;5112521;27;20244;-60
2022/08/31 02:30:57;;;;;;;6.43;3.97;;;19.20;78.50;;;;;;5066013;28;20214;-60
2022/08/31 02:33:27;;;;;;;4.10;3.63;;;19.30;78.20;;;;;;5064241;28;20260;-60
2022/08/31 02:35:53;;;;;;;3.80;3.50;;;19.20;77.80;;;;;;5082681;28;20278;-60
2022/08/31 02:38:19;;;;;;;5.00;4.50;;;19.20;77.80;;;;;;5074928;28;20338;-60
2022/08/31 02:40:45;;;;;;;8.47;3.93;;;19.20;78.00;;;;;;5097809;28;20196;-61
2022/08/31 02:43:11;;;;;;;4.83;4.33;;;19.20;78.00;;;;;;5069983;28;20266;-61
2022/08/31 02:45:37;;;;;;;6.00;3.90;;;19.20;78.50;;;;;;5080940;28;20201;-61
2022/08/31 02:48:06;;;;;;;7.20;3.87;;;19.20;78.70;;;;;;5080114;28;20200;-61
2022/08/31 02:50:32;;;;;;;7.80;4.33;;;19.20;78.80;;;;;;5097972;27;20234;-61
2022/08/31 02:52:58;;;;;;;6.23;3.37;;;19.20;79.20;;;;;;5070249;28;20208;-61
2022/08/31 02:55:26;;;;;;;4.37;3.90;;;19.20;79.10;;;;;;5098926;28;20233;-61
2022/08/31 02:57:52;;;;;;;5.90;4.00;;;19.20;78.90;;;;;;5097886;28;20185;-61
2022/08/31 03:00:20;;;;;;;7.07;4.23;;;19.10;79.00;;;;;;5086485;28;20189;-61
2022/08/31 03:02:47;;;;;;;6.73;3.87;;;19.10;79.30;;;;;;5075724;28;20242;-61
2022/08/31 03:05:13;;;;;;;4.43;3.60;;;19.10;79.20;;;;;;5088255;28;20287;-61
2022/08/31 03:07:39;;;;;;;6.60;3.80;;;19.10;79.30;;;;;;5077493;28;20211;-61
2022/08/31 03:10:09;;;;;;;5.60;3.97;;;19.10;78.90;;;;;;5082941;28;20203;-61
2022/08/31 03:12:35;;;;;;;6.07;4.37;;;19.10;79.00;;;;;;5069523;28;20296;-61
2022/08/31 03:15:02;;;;;;;6.73;3.60;;;19.10;79.20;;;;;;5086442;28;20192;-61
2022/08/31 03:17:27;;;;;;;7.83;4.30;;;19.10;79.10;;;;;;5084813;28;20234;-61
2022/08/31 03:19:59;;;;;;;7.73;4.27;;;19.10;79.40;;;;;;5063428;28;20208;-61
2022/08/31 03:22:26;;;;;;;7.37;4.07;;;19.10;79.10;;;;;;5079515;28;20246;-61
2022/08/31 03:24:51;;;;;;;4.93;3.60;;;19.00;79.10;;;;;;5063797;28;20193;-61
2022/08/31 03:27:17;;;;;;;7.53;4.83;;;19.00;79.30;;;;;;5081467;28;20240;-61
2022/08/31 03:29:43;;;;;;;5.73;3.83;;;19.00;79.40;;;;;;5084466;27;20282;-61
2022/08/31 03:32:09;;;;;;;6.43;4.13;;;19.00;79.50;;;;;;5102132;28;20188;-61
2022/08/31 03:34:34;;;;;;;5.50;3.83;;;19.00;79.70;;;;;;5063010;28;20219;-61
2022/08/31 03:37:00;;;;;;;5.57;4.27;;;19.00;79.70;;;;;;5077260;28;20195;-61
2022/08/31 03:39:26;;;;;;;6.73;4.23;;;19.00;79.60;;;;;;5066707;28;20218;-61
2022/08/31 03:41:51;;;;;;;6.73;4.57;;;19.00;79.80;;;;;;5080941;28;20184;-61
2022/08/31 03:44:20;;;;;;;4.33;3.90;;;18.90;79.60;;;;;;5078623;28;20223;-61
2022/08/31 03:46:49;;;;;;;4.63;4.03;;;18.90;79.70;;;;;;5085212;28;20242;-61
2022/08/31 03:49:17;;;;;;;7.60;4.53;;;18.90;79.70;;;;;;5067276;28;20276;-61
2022/08/31 03:51:43;;;;;;;6.00;4.10;;;18.80;80.00;;;;;;5083912;27;20203;-61
2022/08/31 03:54:10;;;;;;;5.13;4.63;;;18.80;80.10;;;;;;5101442;28;20266;-61
2022/08/31 03:56:36;;;;;;;6.87;4.73;;;18.80;79.90;;;;;;5084552;28;20229;-61
2022/08/31 03:59:01;;;;;;;5.50;4.10;;;18.80;79.60;;;;;;5097034;28;20176;-61
2022/08/31 04:01:27;;;;;;;5.27;4.37;;;18.80;79.80;;;;;;5079857;28;20283;-61
2022/08/31 04:03:52;;;;;;;5.73;4.17;;;18.80;79.80;;;;;;5063072;28;20223;-61
2022/08/31 04:06:18;;;;;;;5.87;4.40;;;18.80;79.70;;;;;;5083769;28;20185;-61
2022/08/31 04:08:44;;;;;;;6.50;5.33;;;18.80;79.60;;;;;;5062508;28;20212;-61
2022/08/31 04:11:13;;;;;;;7.90;4.53;;;18.80;80.20;;;;;;5075167;27;20219;-61
2022/08/31 04:13:40;;;;;;;6.17;4.20;;;18.80;79.90;;;;;;5097735;28;20233;-61
2022/08/31 04:16:08;;;;;;;5.33;4.80;;;18.80;79.70;;;;;;5094101;28;20191;-61
2022/08/31 04:18:44;;;;;;;5.93;4.93;;;18.80;79.70;;;;;;5090499;28;20257;-61
2022/08/31 04:21:16;;;;;;;6.90;4.30;;;18.80;79.80;;;;;;5114042;28;20181;-61
2022/08/31 04:23:41;;;;;;;6.27;4.17;;;18.80;79.60;;;;;;5096200;28;20283;-61
2022/08/31 04:26:16;;;;;;;7.60;5.00;;;18.80;79.80;;;;;;5069263;28;20288;-61
2022/08/31 04:28:41;;;;;;;5.97;4.50;;;18.80;79.90;;;;;;5093471;28;20206;-61
2022/08/31 04:31:07;;;;;;;8.03;4.77;;;18.80;79.50;;;;;;5069477;28;20192;-58
2022/08/31 04:33:38;;;;;;;7.33;4.33;;;18.80;79.40;;;;;;5101651;28;20208;-60
2022/08/31 04:36:08;;;;;;;6.07;4.27;;;18.80;80.00;;;;;;5081578;28;20198;-61
2022/08/31 04:38:35;;;;;;;6.53;4.77;;;18.80;80.50;;;;;;5096142;28;20212;-61
2022/08/31 04:41:08;;;;;;;5.23;4.40;;;18.80;80.50;;;;;;5080431;28;20228;-61
2022/08/31 04:43:34;;;;;;;6.47;5.03;;;18.80;80.40;;;;;;5099190;28;20200;-61
2022/08/31 04:46:02;;;;;;;5.10;4.60;;;18.80;80.40;;;;;;5122676;28;20189;-61
2022/08/31 04:48:28;;;;;;;7.17;4.13;;;18.80;80.20;;;;;;5067390;28;20245;-61
2022/08/31 04:51:17;;;;;;;4.97;4.33;;;18.90;80.30;;;;;;5070998;28;20192;-61
2022/08/31 04:53:44;;;;;;;9.53;5.13;;;18.90;80.50;;;;;;5111203;28;20232;-61
2022/08/31 04:56:15;;;;;;;5.50;4.37;;;18.90;80.40;;;;;;5100798;28;20187;-61
2022/08/31 04:58:43;;;;;;;5.33;4.57;;;18.90;80.50;;;;;;5103086;28;20177;-61
2022/08/31 05:01:13;;;;;;;6.80;5.00;;;18.80;80.20;;;;;;5092596;28;20187;-61
2022/08/31 05:03:40;;;;;;;5.77;4.70;;;18.90;80.00;;;;;;5097269;28;20265;-61
2022/08/31 05:06:11;;;;;;;6.77;3.97;;;18.90;79.60;;;;;;5087010;28;20227;-61
2022/08/31 05:08:37;;;;;;;5.10;4.60;;;18.90;79.70;;;;;;5110425;28;20329;-61
2022/08/31 05:11:14;;;;;;;5.07;4.20;;;18.90;80.00;;;;;;5103692;28;20188;-61
2022/08/31 05:13:40;;;;;;;6.87;3.77;;;18.90;80.30;;;;;;5084476;28;20205;-61
2022/08/31 05:16:09;;;;;;;5.13;4.10;;;19.00;80.60;;;;;;5114087;28;20209;-61
2022/08/31 05:18:36;;;;;;;4.30;3.90;;;19.00;80.50;;;;;;5112094;28;20187;-61
2022/08/31 05:21:13;;;;;;;5.60;4.23;;;18.90;80.30;;;;;;5111325;28;20218;-61
2022/08/31 05:23:39;;;;;;;6.90;4.17;;;19.00;79.90;;;;;;5108235;28;20186;-61
2022/08/31 05:26:06;;;;;;;6.10;4.37;;;19.00;79.90;;;;;;5084634;28;20196;-60
2022/08/31 05:28:35;;;;;;;6.03;4.50;;;19.00;79.80;;;;;;5077395;28;20243;-60
2022/08/31 05:31:00;;;;;;;4.90;4.40;;;19.00;79.90;;;;;;5106234;28;20220;-60
2022/08/31 05:33:29;;;;;;;4.40;4.00;;;19.10;79.80;;;;;;5066294;28;20293;-60
2022/08/31 05:35:55;;;;;;;6.97;4.47;;;19.10;79.60;;;;;;5080457;28;20266;-60
2022/08/31 05:38:20;;;;;;;6.03;4.30;;;19.20;79.70;;;;;;5083270;28;20226;-60
2022/08/31 05:40:52;;;;;;;5.03;4.13;;;19.20;80.00;;;;;;5072548;28;20193;-60
2022/08/31 05:43:18;;;;;;;5.97;4.20;;;19.20;80.00;;;;;;5117021;28;20492;-60
2022/08/31 05:45:43;;;;;;;5.07;3.80;;;19.20;80.10;;;;;;5064634;28;20195;-60
2022/08/31 05:48:09;;;;;;;6.43;5.20;;;19.30;80.20;;;;;;5062790;28;20205;-60
2022/08/31 05:50:36;;;;;;;4.60;4.20;;;19.20;80.10;;;;;;5080526;28;20196;-60
2022/08/31 05:53:02;;;;;;;6.07;4.80;;;19.30;80.20;;;;;;5089875;28;20220;-60
2022/08/31 05:55:28;;;;;;;6.53;4.40;;;19.30;80.40;;;;;;5081440;28;20237;-60
2022/08/31 05:57:54;;;;;;;6.17;4.27;;;19.30;80.10;;;;;;5081803;28;20289;-60
2022/08/31 06:00:19;;;;;;;7.47;4.00;;;19.30;79.80;;;;;;5089058;28;20216;-61
2022/08/31 06:02:45;;;;;;;7.27;4.47;;;19.30;79.20;;;;;;5087865;28;20188;-60
2022/08/31 06:05:11;;;;;;;6.77;4.93;;;19.30;78.60;;;;;;5091010;28;20275;-60
2022/08/31 06:07:36;;;;;;;5.83;4.47;;;19.30;78.30;;;;;;5065561;28;20188;-60
2022/08/31 06:10:03;;;;;;;7.43;4.50;;;19.30;78.10;;;;;;5098860;28;20381;-60
2022/08/31 06:12:30;;;;;;;5.10;3.97;;;19.30;78.00;;;;;;5080656;28;20199;-60
2022/08/31 06:14:56;;;;;;;7.17;4.60;;;19.30;78.00;;;;;;5065844;28;20193;-60
2022/08/31 06:17:23;;;;;;;5.73;4.00;;;19.30;78.00;;;;;;5078946;28;20203;-61
2022/08/31 06:19:50;;;;;;;5.50;3.90;;;19.40;78.30;;;;;;5076046;28;20279;-60
2022/08/31 06:22:16;;;;;;;4.87;4.17;;;19.40;78.70;;;;;;5075137;28;20184;-60
2022/08/31 06:24:41;;;;;;;4.70;3.77;;;19.50;78.50;;;;;;5062945;28;20183;-60
2022/08/31 06:27:09;;;;;;;6.10;4.37;;;19.50;78.60;;;;;;5060780;28;20228;-61
2022/08/31 06:29:35;;;;;;;8.17;4.90;;;19.50;78.30;;;;;;5078841;28;20188;-60
2022/08/31 06:32:06;;;;;;;5.57;4.40;;;19.50;78.20;;;;;;5103146;28;20267;-60
2022/08/31 06:34:33;;;;;;;5.67;4.43;;;19.60;78.20;;;;;;5093637;27;20207;-60
2022/08/31 06:37:00;;;;;;;6.03;4.13;;;19.60;78.20;;;;;;5092207;27;20192;-61
2022/08/31 06:39:25;;;;;;;9.70;5.13;;;19.60;77.70;;;;;;5098501;28;20189;-60
2022/08/31 06:41:51;;;;;;;5.70;5.10;;;19.60;76.90;;;;;;5076319;28;20421;-61
2022/08/31 06:44:19;;;;;;;7.93;4.43;;;19.70;76.90;;;;;;5077613;28;20200;-60
2022/08/31 06:46:46;;;;;;;6.73;5.23;;;19.70;76.00;;;;;;5060300;28;20193;-60
2022/08/31 06:49:13;;;;;;;5.93;4.73;;;19.70;76.30;;;;;;5077324;28;20271;-60
2022/08/31 06:51:39;;;;;;;6.70;4.77;;;19.80;76.30;;;;;;5090881;28;20188;-60
2022/08/31 06:54:07;;;;;;;4.97;4.23;;;19.80;75.20;;;;;;5090426;28;20214;-61
2022/08/31 06:56:34;;;;;;;8.87;5.23;;;19.80;75.50;;;;;;5102858;28;20184;-61
2022/08/31 06:59:00;;;;;;;5.83;4.37;;;19.80;75.10;;;;;;5095735;28;20195;-61
2022/08/31 07:01:28;;;;;;;6.53;4.23;;;19.80;75.10;;;;;;5082786;28;20238;-61
2022/08/31 07:03:59;;;;;;;7.07;5.10;;;19.80;75.60;;;;;;5070202;28;20198;-60
2022/08/31 07:06:28;;;;;;;5.07;4.27;;;19.90;75.90;;;;;;5092142;28;20208;-60
2022/08/31 07:08:57;;;;;;;7.60;4.83;;;19.90;76.20;;;;;;5093357;28;20190;-61
2022/08/31 07:11:32;;;;;;;5.43;4.47;;;19.90;76.80;;;;;;5097817;28;20195;-61
2022/08/31 07:13:59;;;;;;;7.17;4.60;;;20.00;77.20;;;;;;5082293;28;20225;-60
2022/08/31 07:16:27;;;;;;;5.60;4.53;;;20.00;77.00;;;;;;5075861;28;20184;-60
2022/08/31 07:18:54;;;;;;;8.40;4.53;;;20.10;77.20;;;;;;5104174;28;20180;-61
2022/08/31 07:21:24;;;;;;;7.50;4.50;;;20.20;77.00;;;;;;5081381;28;20201;-60
2022/08/31 07:23:50;;;;;;;8.90;5.53;;;20.20;76.60;;;;;;5094010;28;20177;-61
2022/08/31 07:26:21;;;;;;;10.77;5.23;;;20.20;75.30;;;;;;5094458;27;20192;-61
2022/08/31 07:28:51;;;;;;;5.70;5.10;;;20.20;75.60;;;;;;5083532;28;20193;-60
2022/08/31 07:31:18;;;;;;;9.57;4.83;;;20.20;75.10;;;;;;5077707;28;20288;-61
2022/08/31 07:33:44;;;;;;;10.17;5.47;;;20.20;75.10;;;;;;5095282;28;20216;-61
2022/08/31 07:36:13;;;;;;;7.93;4.80;;;20.30;75.10;;;;;;5077194;27;20210;-61
2022/08/31 07:44:11;;;;;;;13.47;4.80;;;20.10;71.70;;;;;;5118447;27;20190;-61
2022/08/31 07:46:37;;;;;;;8.50;4.73;;;20.20;71.80;;;;;;5101100;28;20256;-61
2022/08/31 07:49:07;;;;;;;6.80;4.87;;;20.20;71.50;;;;;;5066544;28;20279;-60
2022/08/31 07:51:33;;;;;;;6.73;4.93;;;20.10;71.90;;;;;;5087000;27;20192;-61
2022/08/31 07:53:59;;;;;;;4.60;4.20;;;20.10;72.20;;;;;;5076836;28;20236;-61
2022/08/31 07:56:25;;;;;;;5.13;3.80;;;20.10;71.90;;;;;;5074248;28;20223;-61
2022/08/31 07:58:50;;;;;;;5.80;4.43;;;20.10;70.80;;;;;;5061150;28;20204;-61
2022/08/31 08:01:17;;;;;;;6.13;3.97;;;20.10;72.00;;;;;;5082824;28;20192;-61
2022/08/31 08:03:43;;;;;;;5.60;4.63;;;20.00;71.70;;;;;;5079889;28;20196;-61
2022/08/31 08:06:18;;;;;;;5.50;4.13;;;20.00;72.50;;;;;;5077265;28;20192;-60
2022/08/31 08:08:45;;;;;;;6.57;4.63;;;20.10;73.10;;;;;;5063134;28;20199;-61
2022/08/31 08:11:16;;;;;;;6.00;3.83;;;20.00;73.30;;;;;;5077881;28;20189;-60
2022/08/31 08:13:42;;;;;;;4.83;3.80;;;20.00;73.60;;;;;;5093365;28;20251;-60
2022/08/31 08:16:08;;;;;;;6.60;4.30;;;20.00;74.40;;;;;;5070737;27;20188;-61
2022/08/31 08:18:34;;;;;;;4.50;3.97;;;20.00;75.30;;;;;;5101748;28;20211;-61
2022/08/31 08:21:00;;;;;;;11.17;5.17;;;20.00;76.60;;;;;;5051341;28;20253;-61
2022/08/31 08:23:26;;;;;;;6.67;4.40;;;20.00;77.00;;;;;;5077960;28;20189;-60
2022/08/31 08:25:51;;;;;;;4.77;3.90;;;20.00;75.40;;;;;;5078310;28;20180;-60
2022/08/31 08:28:19;;;;;;;6.10;4.13;;;19.70;75.40;;;;;;5060877;28;20243;-61
2022/08/31 08:30:53;;;;;;;6.07;4.67;;;19.50;75.30;;;;;;5074772;28;20177;-60
2022/08/31 08:33:19;;;;;;;7.53;4.63;;;19.30;76.00;;;;;;5074728;28;20236;-60
2022/08/31 08:35:45;;;;;;;6.93;5.60;;;19.40;76.80;;;;;;5074858;28;20199;-60
2022/08/31 08:38:10;;;;;;;7.80;5.33;;;19.30;78.70;;;;;;5038415;28;20189;-60
2022/08/31 08:40:41;;;;;;;8.00;5.23;;;19.30;78.30;;;;;;5039897;28;20189;-60
2022/08/31 08:43:11;;;;;;;5.37;4.87;;;19.30;79.30;;;;;;5088510;28;20192;-60
2022/08/31 08:45:37;;;;;;;5.57;4.57;;;19.30;79.60;;;;;;5072959;28;20188;-61
2022/08/31 08:48:10;;;;;;;7.00;5.10;;;19.40;79.80;;;;;;5037251;28;20259;-61
2022/08/31 08:50:37;;;;;;;6.93;4.50;;;19.50;79.60;;;;;;5041385;28;20245;-61
2022/08/31 08:53:07;;;;;;;5.87;5.37;;;19.50;79.90;;;;;;5075436;28;20200;-61
2022/08/31 08:55:35;;;;;;;7.57;5.70;;;19.60;80.70;;;;;;5069845;28;20188;-61
2022/08/31 08:58:06;;;;;;;7.57;5.53;;;19.70;80.90;;;;;;5065862;28;20204;-61
2022/08/31 09:00:33;;;;;;;6.57;4.60;;;19.70;80.10;;;;;;5057054;28;20188;-61
2022/08/31 09:03:11;;;;;;;6.07;5.17;;;19.60;79.50;;;;;;5040255;28;20270;-61
2022/08/31 09:05:42;;;;;;;6.30;4.97;;;19.50;79.80;;;;;;5073489;28;20185;-61
2022/08/31 09:08:34;;;;;;;5.77;4.90;;;19.30;80.10;;;;;;5072138;28;20189;-61
2022/08/31 09:11:26;;;;;;;7.33;5.17;;;19.30;80.60;;;;;;5072707;28;20192;-61
2022/08/31 09:14:06;;;;;;;7.83;4.70;;;19.50;81.00;;;;;;5067628;28;20217;-61
2022/08/31 09:16:43;;;;;;;5.37;4.63;;;19.50;80.10;;;;;;5076776;28;20230;-61
2022/08/31 09:19:16;;;;;;;7.90;4.77;;;19.60;80.60;;;;;;5076071;28;20198;-61
2022/08/31 09:21:52;;;;;;;5.07;4.20;;;19.60;79.40;;;;;;5066760;28;20185;-61
2022/08/31 09:24:21;;;;;;;7.47;4.53;;;19.60;79.10;;;;;;5075890;28;20193;-62
2022/08/31 09:27:16;;;;;;;6.40;4.57;;;19.60;78.00;;;;;;5086795;28;20316;-61
2022/08/31 09:29:44;;;;;;;5.60;3.93;;;19.60;78.40;;;;;;5072897;28;20279;-61
2022/08/31 09:32:16;;;;;;;4.30;3.80;;;19.70;78.70;;;;;;5066139;28;20216;-61
2022/08/31 09:35:00;;;;;;;4.77;3.90;;;19.80;77.30;;;;;;5073999;28;20219;-61
2022/08/31 09:37:32;;;;;;;5.67;3.80;;;19.70;75.60;;;;;;5094317;28;20205;-61
2022/08/31 09:40:16;;;;;;;6.57;4.30;;;19.70;77.10;;;;;;5076844;28;20177;-61
2022/08/31 09:42:45;;;;;;;4.47;4.03;;;19.80;77.60;;;;;;5075194;28;20207;-61
2022/08/31 09:45:28;;;;;;;6.33;4.13;;;19.70;76.40;;;;;;5076794;28;20242;-61
2022/08/31 09:47:59;;;;;;;6.87;4.23;;;19.70;75.10;;;;;;5075655;28;20193;-61
2022/08/31 09:50:55;;;;;;;5.67;4.67;;;19.70;76.30;;;;;;5074762;28;20272;-61
2022/08/31 09:56:20;;;;;;;8.70;4.87;;;19.80;77.20;;;;;;5083242;28;20193;-61
2022/08/31 09:58:53;;;;;;;5.63;4.40;;;19.80;76.80;;;;;;5043844;28;20188;-61
2022/08/31 10:01:33;;;;;;;4.80;4.10;;;19.90;76.80;;;;;;5076353;28;20188;-61
2022/08/31 10:04:27;;;;;;;5.10;4.40;;;19.90;76.80;;;;;;5082521;28;20189;-61
2022/08/31 10:07:10;;;;;;;5.67;4.33;;;20.00;75.10;;;;;;5070744;28;20181;-61
2022/08/31 10:09:59;;;;;;;5.50;4.17;;;20.00;76.40;;;;;;5072745;28;20188;-62
2022/08/31 10:12:46;;;;;;;5.50;4.03;;;20.10;75.70;;;;;;5073059;28;20193;-61
2022/08/31 10:15:27;;;;;;;9.00;3.47;;;20.20;75.30;;;;;;5069762;28;20197;-61
2022/08/31 10:18:12;;;;;;;4.90;3.77;;;20.20;75.20;;;;;;5075129;28;20193;-61
2022/08/31 10:20:57;;;;;;;6.13;3.77;;;20.20;75.20;;;;;;5069527;28;20191;-61
2022/08/31 10:23:55;;;;;;;6.23;3.97;;;20.30;74.70;;;;;;5060981;28;20241;-60
2022/08/31 10:26:35;;;;;;;7.23;4.07;;;20.30;74.70;;;;;;5034499;28;20204;-60
2022/08/31 10:29:15;;;;;;;8.50;4.93;;;20.40;75.30;;;;;;5095220;27;20184;-60
2022/08/31 10:31:54;;;;;;;6.00;4.23;;;20.50;75.30;;;;;;5105778;28;20187;-60
2022/08/31 10:37:19;;;;;;;5.97;4.13;;;20.70;75.00;;;;;;5119370;27;20187;-62
2022/08/31 10:39:47;;;;;;;5.33;4.20;;;20.70;72.90;;;;;;5098897;28;20215;-60
2022/08/31 10:42:24;;;;;;;4.57;3.80;;;20.70;73.00;;;;;;5098623;27;20195;-60
2022/08/31 10:44:57;;;;;;;4.27;3.60;;;20.80;73.10;;;;;;5102776;28;20188;-59
2022/08/31 10:47:27;;;;;;;4.83;3.67;;;20.80;72.20;;;;;;5096721;27;20181;-60
2022/08/31 10:49:59;;;;;;;4.97;3.67;;;20.80;72.80;;;;;;5099852;28;20252;-60
2022/08/31 10:52:33;;;;;;;4.60;3.77;;;20.80;73.20;;;;;;5075138;28;20200;-60
2022/08/31 10:55:08;;;;;;;5.13;4.20;;;20.90;72.90;;;;;;5092226;27;20215;-60
2022/08/31 10:57:37;;;;;;;4.97;3.40;;;20.90;70.30;;;;;;5094218;28;20188;-60
2022/08/31 11:03:14;;;;;;;6.37;3.87;;;21.20;72.10;;;;;;5115537;27;20282;-60
2022/08/31 11:06:08;;;;;;;8.67;4.10;;;21.20;70.70;;;;;;5091606;28;20252;-60
2022/08/31 11:09:06;;;;;;;8.40;4.20;;;21.10;71.60;;;;;;5082555;28;20205;-60
2022/08/31 11:12:05;;;;;;;10.23;4.70;;;21.20;71.30;;;;;;5093030;28;20255;-60
2022/08/31 11:14:57;;;;;;;5.50;4.17;;;21.30;70.70;;;;;;5093552;28;20200;-60
2022/08/31 11:17:48;;;;;;;6.40;3.80;;;21.30;69.90;;;;;;5094814;28;20180;-60
2022/08/31 11:20:50;;;;;;;8.20;3.83;;;21.30;68.60;;;;;;5120728;27;20216;-60
2022/08/31 11:23:26;;;;;;;4.50;3.40;;;21.30;69.50;;;;;;5098501;27;20187;-60
2022/08/31 11:26:15;;;;;;;4.53;3.50;;;21.30;66.80;;;;;;5096458;28;20207;-60
2022/08/31 11:29:14;;;;;;;7.20;3.77;;;21.20;67.10;;;;;;5098340;28;20205;-60
2022/08/31 11:31:41;;;;;;;4.80;3.90;;;21.20;66.40;;;;;;5041982;28;20255;-60
2022/08/31 11:34:26;;;;;;;4.67;3.50;;;21.10;68.40;;;;;;5057566;28;20213;-60
2022/08/31 11:36:57;;;;;;;4.57;3.40;;;21.00;68.60;;;;;;5073043;28;20196;-60
2022/08/31 11:39:39;;;;;;;7.10;4.10;;;20.80;68.50;;;;;;5077926;28;20192;-60
2022/08/31 11:42:11;;;;;;;10.67;4.33;;;20.80;69.70;;;;;;5078241;28;20193;-60
2022/08/31 11:44:38;;;;;;;7.10;3.93;;;20.90;69.70;;;;;;5079872;28;20181;-60
2022/08/31 11:47:08;;;;;;;5.63;4.03;;;20.80;69.80;;;;;;5075194;28;20189;-60
2022/08/31 11:49:47;;;;;;;7.43;4.20;;;20.70;70.60;;;;;;5074691;28;20195;-60
2022/08/31 11:52:28;;;;;;;4.57;3.83;;;20.70;69.10;;;;;;5072809;28;20192;-60
2022/08/31 11:55:09;;;;;;;6.73;3.93;;;20.50;68.60;;;;;;5074137;28;20207;-60
2022/08/31 11:58:14;;;;;;;6.83;3.70;;;20.50;68.90;;;;;;5080583;28;20199;-60
2022/08/31 12:01:24;;;;;;;7.87;3.80;;;20.50;69.60;;;;;;5070815;28;20258;-60
2022/08/31 12:04:02;;;;;;;4.83;4.30;;;20.50;69.30;;;;;;5062345;28;20208;-60
2022/08/31 12:06:27;;;;;;;5.37;4.23;;;20.60;70.10;;;;;;5077880;28;20256;-60
2022/08/31 12:09:16;;;;;;;5.57;4.40;;;20.60;69.30;;;;;;5071690;28;20276;-60
2022/08/31 12:12:05;;;;;;;5.03;4.00;;;20.60;70.10;;;;;;5072327;28;20212;-60
2022/08/31 12:14:50;;;;;;;5.50;3.77;;;20.60;69.80;;;;;;5083945;28;20231;-60
2022/08/31 12:17:22;;;;;;;7.07;5.53;;;20.60;70.10;;;;;;5072505;28;20185;-60
2022/08/31 12:20:00;;;;;;;5.53;4.00;;;20.50;69.40;;;;;;5074110;28;20185;-60
2022/08/31 12:26:06;;;;;;;5.07;3.40;;;20.50;70.00;;;;;;5091553;28;20265;-60
2022/08/31 12:29:04;;;;;;;6.70;4.27;;;20.40;70.00;;;;;;5094539;28;20231;-60
2022/08/31 12:31:33;;;;;;;6.20;4.07;;;20.50;70.50;;;;;;5098265;28;20180;-60
2022/08/31 12:34:07;;;;;;;5.57;4.40;;;20.60;70.40;;;;;;5094031;28;20357;-60
2022/08/31 12:36:34;;;;;;;8.07;4.30;;;20.50;70.40;;;;;;5092685;28;20184;-60
2022/08/31 12:39:08;;;;;;;5.17;4.10;;;20.30;71.40;;;;;;5094760;28;20246;-60
2022/08/31 12:41:39;;;;;;;7.30;4.60;;;20.30;71.50;;;;;;5094645;28;20198;-60
2022/08/31 12:44:05;;;;;;;6.13;4.80;;;20.30;71.90;;;;;;5081854;28;20191;-60
2022/08/31 12:46:51;;;;;;;6.23;4.80;;;20.10;71.50;;;;;;5060661;28;20245;-60
2022/08/31 12:49:35;;;;;;;5.00;4.23;;;20.10;72.20;;;;;;5108548;28;20200;-60
2022/08/31 12:52:12;;;;;;;5.67;4.57;;;20.10;73.40;;;;;;5089533;28;20274;-60
2022/08/31 12:55:09;;;;;;;5.77;4.60;;;20.10;73.70;;;;;;5098717;28;20218;-60
2022/08/31 12:57:41;;;;;;;9.00;4.90;;;20.00;75.50;;;;;;5116298;28;20180;-60
2022/08/31 13:00:09;;;;;;;8.00;5.33;;;20.00;75.20;;;;;;5100246;28;20179;-60
2022/08/31 13:02:41;;;;;;;8.70;6.03;;;19.90;77.00;;;;;;5098416;27;20283;-60
2022/08/31 13:05:20;;;;;;;7.03;5.13;;;19.80;78.30;;;;;;5095479;27;20295;-60
2022/08/31 13:07:46;;;;;;;10.47;5.30;;;19.80;79.70;;;;;;5098347;27;20267;-60
2022/08/31 13:10:21;;;;;;;7.07;5.83;;;19.70;79.20;;;;;;5087149;27;20303;-60
2022/08/31 13:12:59;;;;;;;7.07;5.40;;;19.50;80.90;;;;;;5099793;28;20226;-60
2022/08/31 13:15:45;;;;;;;5.57;4.93;;;19.50;80.80;;;;;;5105199;27;20183;-60
2022/08/31 13:18:15;;;;;;;8.23;6.13;;;19.50;82.00;;;;;;5098914;28;20187;-60
2022/08/31 13:20:42;;;;;;;7.63;4.97;;;19.40;82.40;;;;;;5095774;28;20191;-60
2022/08/31 13:23:12;;;;;;;10.10;6.57;;;19.30;81.80;;;;;;5101088;27;20180;-60
2022/08/31 13:25:38;;;;;;;8.37;5.57;;;19.30;82.50;;;;;;5098909;27;20252;-60
2022/08/31 13:28:11;;;;;;;7.50;5.40;;;19.30;82.30;;;;;;5088348;28;20227;-60